createdAt,value
2023-09-17T00:00:33.114Z,21.60
2023-09-17T00:05:30.130Z,20.95
2023-09-17T00:10:28.018Z,20.99
2023-09-17T00:15:27.031Z,20.87
2023-09-17T00:20:23.992Z,20.69
2023-09-17T00:25:20.889Z,20.57
2023-09-17T00:30:18.617Z,20.49
2023-09-17T00:35:15.627Z,20.52
2023-09-17T00:40:13.040Z,20.34
2023-09-17T00:45:11.565Z,20.27
2023-09-17T00:50:11.122Z,20.30
2023-09-17T00:55:10.539Z,20.17
2023-09-17T01:00:10.590Z,20.10
2023-09-17T01:05:08.980Z,20.15
2023-09-17T01:10:09.040Z,20.13
2023-09-17T01:15:09.208Z,19.99
2023-09-17T01:20:26.299Z,20.09
2023-09-17T01:25:36.820Z,20.07
2023-09-17T01:30:34.542Z,20.02
2023-09-17T01:35:33.761Z,19.83
2023-09-17T01:40:32.293Z,19.91
2023-09-17T01:45:35.625Z,19.87
2023-09-17T01:50:32.967Z,19.68
2023-09-17T01:55:30.231Z,19.75
2023-09-17T02:00:27.584Z,19.75
2023-09-17T02:05:25.843Z,19.48
2023-09-17T02:10:22.898Z,19.57
2023-09-17T02:15:20.485Z,19.12
2023-09-17T02:20:17.709Z,19.47
2023-09-17T02:25:15.394Z,19.48
2023-09-17T02:30:12.762Z,19.42
2023-09-17T02:35:09.786Z,19.48
2023-09-17T02:40:10.067Z,19.08
2023-09-17T02:45:09.587Z,19.48
2023-09-17T02:50:07.078Z,19.47
2023-09-17T02:55:05.384Z,19.44
2023-09-17T03:00:05.539Z,19.39
2023-09-17T03:05:03.308Z,19.46
2023-09-17T03:10:00.749Z,19.38
2023-09-17T03:14:58.854Z,19.38
2023-09-17T03:19:55.935Z,19.42
2023-09-17T03:25:03.748Z,19.32
2023-09-17T03:30:04.334Z,19.32
2023-09-17T03:35:02.524Z,19.07
2023-09-17T03:40:09.903Z,19.08
2023-09-17T03:45:10.520Z,18.94
2023-09-17T03:50:09.425Z,18.85
2023-09-17T03:55:10.434Z,18.89
2023-09-17T04:00:10.797Z,18.53
2023-09-17T04:05:13.164Z,18.61
2023-09-17T04:10:11.713Z,18.67
2023-09-17T04:15:13.606Z,18.84
2023-09-17T04:20:11.709Z,18.78
2023-09-17T04:25:11.671Z,18.38
2023-09-17T04:30:12.466Z,18.33
2023-09-17T04:35:11.189Z,18.56
2023-09-17T04:40:09.599Z,18.10
2023-09-17T04:45:11.288Z,18.62
2023-09-17T04:50:10.421Z,18.80
2023-09-17T04:55:08.807Z,18.44
2023-09-17T05:00:12.511Z,19.07
2023-09-17T05:05:10.903Z,19.24
2023-09-17T05:10:11.935Z,19.77
2023-09-17T05:15:17.711Z,20.29
2023-09-17T05:20:31.195Z,20.99
2023-09-17T05:25:28.736Z,21.74
2023-09-17T05:30:26.154Z,23.00
2023-09-17T05:35:23.522Z,23.52
2023-09-17T05:40:23.911Z,24.71
2023-09-17T05:45:20.928Z,25.81
2023-09-17T05:50:19.429Z,25.90
2023-09-17T05:55:18.019Z,25.06
2023-09-17T06:00:20.233Z,24.73
2023-09-17T06:05:20.433Z,24.05
2023-09-17T06:10:28.311Z,23.14
2023-09-17T06:15:27.190Z,22.89
2023-09-17T06:20:24.463Z,23.31
2023-09-17T06:25:26.640Z,23.64
2023-09-17T06:30:25.456Z,24.37
2023-09-17T06:35:23.576Z,25.37
2023-09-17T06:40:21.930Z,26.11
2023-09-17T06:45:21.651Z,26.69
2023-09-17T06:50:18.774Z,26.80
2023-09-17T06:55:16.798Z,26.25
2023-09-17T07:00:14.963Z,25.97
2023-09-17T07:05:12.826Z,25.31
2023-09-17T07:10:10.401Z,24.74
2023-09-17T07:15:10.921Z,25.24
2023-09-17T07:20:08.832Z,25.52
2023-09-17T07:25:06.269Z,25.16
2023-09-17T07:30:03.956Z,25.92
2023-09-17T07:35:03.424Z,25.91
2023-09-17T07:40:02.277Z,25.54
2023-09-17T07:44:59.446Z,25.87
2023-09-17T07:49:56.698Z,25.62
2023-09-17T07:54:54.773Z,25.82
2023-09-17T07:59:53.713Z,25.52
2023-09-17T08:04:50.650Z,26.38
2023-09-17T08:09:47.584Z,27.07
2023-09-17T08:14:46.966Z,27.10
2023-09-17T08:19:44.061Z,26.72
2023-09-17T08:24:41.159Z,26.64
2023-09-17T08:29:38.233Z,26.34
2023-09-17T08:34:36.516Z,26.33
2023-09-17T08:39:33.645Z,26.08
2023-09-17T08:44:32.330Z,25.76
2023-09-17T08:49:29.989Z,25.85
2023-09-17T08:54:34.550Z,25.99
2023-09-17T08:59:34.774Z,27.28
2023-09-17T09:04:35.402Z,27.70
2023-09-17T09:09:36.641Z,27.57
2023-09-17T09:14:33.681Z,27.84
2023-09-17T09:19:31.031Z,27.72
2023-09-17T09:24:30.107Z,27.72
2023-09-17T09:29:30.004Z,27.51
2023-09-17T09:34:28.655Z,27.37
2023-09-17T09:39:25.571Z,26.82
2023-09-17T09:44:27.934Z,26.78
2023-09-17T09:49:25.988Z,26.79
2023-09-17T09:54:22.888Z,26.85
2023-09-17T09:59:21.898Z,27.04
2023-09-17T10:04:19.653Z,27.73
2023-09-17T10:09:33.211Z,27.91
2023-09-17T10:14:57.487Z,28.46
2023-09-17T10:19:58.347Z,28.02
2023-09-17T10:24:56.470Z,27.52
2023-09-17T10:29:56.343Z,27.19
2023-09-17T10:34:58.064Z,27.05
2023-09-17T10:39:57.769Z,27.08
2023-09-17T10:44:56.742Z,27.35
2023-09-17T10:49:54.141Z,27.31
2023-09-17T10:54:56.668Z,27.88
2023-09-17T10:59:56.707Z,27.70
2023-09-17T11:04:54.201Z,28.25
2023-09-17T11:09:51.882Z,28.16
2023-09-17T11:14:48.910Z,28.09
2023-09-17T11:19:48.308Z,27.90
2023-09-17T11:24:53.824Z,27.99
2023-09-17T11:29:51.121Z,28.05
2023-09-17T11:34:53.240Z,28.60
2023-09-17T11:39:51.509Z,28.25
2023-09-17T11:44:49.113Z,27.84
2023-09-17T11:49:47.597Z,27.93
2023-09-17T11:54:51.529Z,27.80
2023-09-17T11:59:48.616Z,27.68
2023-09-17T12:04:46.801Z,27.55
2023-09-17T12:10:03.131Z,27.38
2023-09-17T12:15:00.607Z,27.33
2023-09-17T12:20:57.782Z,27.60
2023-09-17T12:25:55.609Z,27.55
2023-09-17T12:30:52.838Z,27.31
2023-09-17T12:35:50.712Z,27.54
2023-09-17T12:40:47.727Z,27.69
2023-09-17T12:45:48.755Z,27.69
2023-09-17T12:50:46.490Z,27.76
2023-09-17T12:55:43.574Z,27.85
2023-09-17T13:00:56.252Z,27.88
2023-09-17T13:05:57.980Z,28.11
2023-09-17T13:10:57.247Z,28.42
2023-09-17T13:15:55.980Z,28.51
2023-09-17T13:20:53.448Z,28.14
2023-09-17T13:25:53.752Z,28.20
2023-09-17T13:30:54.643Z,27.76
2023-09-17T13:35:52.529Z,27.69
2023-09-17T13:40:50.930Z,27.28
2023-09-17T13:45:56.387Z,27.67
2023-09-17T13:50:54.439Z,27.89
2023-09-17T13:55:51.716Z,27.96
2023-09-17T14:00:49.711Z,27.85
2023-09-17T14:05:49.734Z,27.68
2023-09-17T14:10:46.843Z,27.61
2023-09-17T14:15:43.961Z,27.76
2023-09-17T14:20:41.098Z,27.38
2023-09-17T14:25:38.955Z,27.44
2023-09-17T14:30:36.150Z,27.55
2023-09-17T14:35:35.255Z,27.44
2023-09-17T14:40:32.481Z,27.19
2023-09-17T14:45:30.641Z,27.20
2023-09-17T14:50:27.713Z,27.13
2023-09-17T14:55:24.754Z,26.82
2023-09-17T15:00:21.955Z,27.09
2023-09-17T15:05:20.467Z,26.39
2023-09-17T15:10:17.711Z,26.46
2023-09-17T15:15:18.438Z,26.37
2023-09-17T15:20:15.709Z,26.17
2023-09-17T15:25:17.209Z,26.31
2023-09-17T15:30:14.763Z,26.27
2023-09-17T15:35:19.117Z,26.18
2023-09-17T15:40:17.734Z,25.92
2023-09-17T15:45:14.895Z,25.98
2023-09-17T15:50:12.598Z,25.80
2023-09-17T15:55:11.122Z,25.82
2023-09-17T16:00:09.749Z,25.48
2023-09-17T16:05:09.531Z,25.66
2023-09-17T16:10:10.394Z,25.39
2023-09-17T16:15:09.507Z,25.48
2023-09-17T16:20:08.714Z,25.17
2023-09-17T16:30:51.618Z,25.22
2023-09-17T16:35:51.452Z,25.14
2023-09-17T16:40:48.637Z,24.96
2023-09-17T16:45:46.035Z,24.52
2023-09-17T16:50:44.469Z,24.74
2023-09-17T16:55:42.206Z,24.74
2023-09-17T17:00:51.113Z,24.42
2023-09-17T17:05:54.673Z,24.33
2023-09-17T17:10:51.957Z,24.10
2023-09-17T17:15:49.117Z,24.10
2023-09-17T17:20:46.190Z,24.07
2023-09-17T17:25:44.722Z,24.06
2023-09-17T17:30:41.736Z,23.69
2023-09-17T17:35:39.124Z,23.82
2023-09-17T17:40:36.304Z,23.64
2023-09-17T17:45:35.659Z,23.72
2023-09-17T17:50:32.861Z,23.55
2023-09-17T17:55:30.825Z,23.53
2023-09-17T18:00:28.491Z,23.17
2023-09-17T18:05:27.706Z,23.44
2023-09-17T18:10:27.876Z,23.28
2023-09-17T18:15:28.743Z,23.35
2023-09-17T18:20:28.066Z,23.27
2023-09-17T18:25:27.084Z,22.97
2023-09-17T18:30:24.735Z,23.14
2023-09-17T18:35:22.962Z,23.26
2023-09-17T18:40:20.836Z,23.33
2023-09-17T18:45:21.117Z,22.96
2023-09-17T18:50:19.680Z,23.39
2023-09-17T18:55:16.685Z,23.38
2023-09-17T19:00:16.763Z,23.33
2023-09-17T19:05:13.964Z,23.24
2023-09-17T19:10:11.929Z,22.92
2023-09-17T19:15:09.743Z,22.81
2023-09-17T19:20:08.796Z,22.94
2023-09-17T19:25:14.010Z,23.00
2023-09-17T19:30:12.472Z,23.00
2023-09-17T19:35:10.137Z,22.89
2023-09-17T19:40:11.037Z,22.85
2023-09-17T19:45:09.119Z,22.60
2023-09-17T19:50:07.871Z,22.71
2023-09-17T19:55:07.043Z,22.69
2023-09-17T20:00:07.114Z,22.76
2023-09-17T20:05:14.586Z,22.64
2023-09-17T20:10:15.696Z,22.38
2023-09-17T20:15:14.127Z,22.26
2023-09-17T20:20:12.653Z,22.94
2023-09-17T20:25:10.285Z,22.51
2023-09-17T20:30:09.642Z,22.80
2023-09-17T20:35:10.345Z,22.83
2023-09-17T20:40:08.532Z,22.29
2023-09-17T20:45:06.701Z,22.77
2023-09-17T20:50:06.355Z,22.57
2023-09-17T20:55:06.057Z,22.38
2023-09-17T21:00:05.634Z,22.50
2023-09-17T21:05:03.317Z,22.18
2023-09-17T21:10:00.966Z,22.11
2023-09-17T21:14:57.933Z,21.70
2023-09-17T21:19:54.868Z,21.76
2023-09-17T21:24:51.943Z,21.61
2023-09-17T21:29:49.664Z,21.43
2023-09-17T21:34:46.646Z,21.47
2023-09-17T21:39:43.701Z,21.39
2023-09-17T21:44:40.885Z,21.67
2023-09-17T21:49:38.669Z,21.81
2023-09-17T21:54:35.563Z,21.67
2023-09-17T21:59:32.581Z,21.48
2023-09-17T22:04:30.232Z,21.25
2023-09-17T22:09:27.845Z,21.16
2023-09-17T22:14:24.995Z,20.55
2023-09-17T22:19:22.126Z,20.88
2023-09-17T22:24:19.073Z,21.06
2023-09-17T22:29:16.855Z,20.74
2023-09-17T22:34:13.743Z,20.91
2023-09-17T22:39:13.386Z,20.44
2023-09-17T22:44:23.016Z,20.73
2023-09-17T22:49:23.598Z,20.56
2023-09-17T22:54:20.557Z,20.44
2023-09-17T22:59:17.444Z,20.26
2023-09-17T23:04:14.378Z,20.33
2023-09-17T23:09:12.055Z,20.49
2023-09-17T23:14:09.826Z,20.31
2023-09-17T23:19:06.844Z,20.07
2023-09-17T23:24:07.620Z,19.98
2023-09-17T23:29:08.910Z,20.38
2023-09-17T23:34:06.189Z,20.42
2023-09-17T23:39:04.056Z,20.24
2023-09-17T23:44:01.875Z,20.02
2023-09-17T23:48:59.605Z,19.70
2023-09-17T23:53:57.833Z,18.96
2023-09-17T23:58:55.109Z,19.05
